Terminal Aerodrome Forecast
Issued by NWS Paducah, KY

Home | Current Version | Previous Version | Graphics & Text | Print | Product List | Glossary On
Versions: 1 2 3 4 5 6 7 8 9 10 11 12 13 14 15 16 17 18
000
FTUS43 KPAH 281120
TAFPAH
TAF
KPAH 281120Z 2812/2912 20002KT 6SM BR BKN300
      TEMPO 2812/2814 2SM BR
     FM281600 18010KT P6SM BKN035
     FM290000 16006KT P6SM SKC=

USA.gov is the U.S. government's official web portal to all federal, state and local government web resources and services.